sensor_id;sensor_type;location;lat;lon;timestamp;pressure;altitude;pressure_sealevel;temperature;humidity
10688;BME280;5392;42.688;23.298;2023-04-12T00:02:16;57488.56;;;-144.48;100.00
10688;BME280;5392;42.688;23.298;2023-04-12T00:04:42;57488.56;;;-144.48;100.00
10688;BME280;5392;42.688;23.298;2023-04-12T00:07:10;57451.00;;;-144.48;100.00
10688;BME280;5392;42.688;23.298;2023-04-12T00:09:37;57480.22;;;-144.48;100.00
10688;BME280;5392;42.688;23.298;2023-04-12T00:12:05;57492.75;;;-144.48;100.00
10688;BME280;5392;42.688;23.298;2023-04-12T00:14:31;57486.47;;;-144.48;100.00
10688;BME280;5392;42.688;23.298;2023-04-12T00:16:58;57459.34;;;-144.48;100.00
10688;BME280;5392;42.688;23.298;2023-04-12T00:19:25;57482.31;;;-144.48;100.00
10688;BME280;5392;42.688;23.298;2023-04-12T00:21:53;57436.38;;;-144.48;100.00
10688;BME280;5392;42.688;23.298;2023-04-12T00:24:19;57490.66;;;-144.48;100.00
10688;BME280;5392;42.688;23.298;2023-04-12T00:26:46;57486.47;;;-144.48;100.00
10688;BME280;5392;42.688;23.298;2023-04-12T00:29:14;57480.22;;;-144.48;100.00
10688;BME280;5392;42.688;23.298;2023-04-12T00:31:41;57492.75;;;-144.48;100.00
10688;BME280;5392;42.688;23.298;2023-04-12T00:34:08;57492.75;;;-144.48;100.00
10688;BME280;5392;42.688;23.298;2023-04-12T00:36:34;57463.53;;;-144.48;100.00
10688;BME280;5392;42.688;23.298;2023-04-12T00:39:01;57473.97;;;-144.48;100.00
10688;BME280;5392;42.688;23.298;2023-04-12T00:41:28;57480.22;;;-144.48;100.00
10688;BME280;5392;42.688;23.298;2023-04-12T00:43:54;57417.59;;;-144.48;100.00
10688;BME280;5392;42.688;23.298;2023-04-12T00:46:22;57457.25;;;-144.48;100.00
10688;BME280;5392;42.688;23.298;2023-04-12T00:48:48;57492.75;;;-144.48;100.00
10688;BME280;5392;42.688;23.298;2023-04-12T00:51:15;57453.09;;;-144.48;100.00
10688;BME280;5392;42.688;23.298;2023-04-12T00:53:43;57453.09;;;-144.48;100.00
10688;BME280;5392;42.688;23.298;2023-04-12T00:56:10;57476.03;;;-144.48;100.00
10688;BME280;5392;42.688;23.298;2023-04-12T00:58:37;57444.72;;;-144.48;100.00
10688;BME280;5392;42.688;23.298;2023-04-12T01:01:04;57480.22;;;-144.48;100.00
10688;BME280;5392;42.688;23.298;2023-04-12T01:03:31;57465.59;;;-144.48;100.00
10688;BME280;5392;42.688;23.298;2023-04-12T01:08:37;57459.34;;;-144.48;100.00
10688;BME280;5392;42.688;23.298;2023-04-12T01:11:25;57467.69;;;-144.48;100.00
10688;BME280;5392;42.688;23.298;2023-04-12T01:14:28;57490.66;;;-144.48;100.00
10688;BME280;5392;42.688;23.298;2023-04-12T01:16:59;57451.00;;;-144.48;100.00
10688;BME280;5392;42.688;23.298;2023-04-12T01:27:50;57476.03;;;-144.48;100.00
10688;BME280;5392;42.688;23.298;2023-04-12T01:30:19;57448.91;;;-144.48;100.00
10688;BME280;5392;42.688;23.298;2023-04-12T01:32:49;57471.88;;;-144.48;100.00
10688;BME280;5392;42.688;23.298;2023-04-12T01:35:18;57503.19;;;-144.48;100.00
10688;BME280;5392;42.688;23.298;2023-04-12T01:37:46;57509.44;;;-144.48;100.00
10688;BME280;5392;42.688;23.298;2023-04-12T01:40:13;57480.22;;;-144.48;100.00
10688;BME280;5392;42.688;23.298;2023-04-12T01:42:40;57494.81;;;-144.48;100.00
10688;BME280;5392;42.688;23.298;2023-04-12T01:45:07;57451.00;;;-144.48;100.00
10688;BME280;5392;42.688;23.298;2023-04-12T01:47:34;57451.00;;;-144.48;100.00
10688;BME280;5392;42.688;23.298;2023-04-12T01:52:51;57478.13;;;-144.48;100.00
10688;BME280;5392;42.688;23.298;2023-04-12T01:55:20;57446.81;;;-144.48;100.00
10688;BME280;5392;42.688;23.298;2023-04-12T01:57:49;57501.09;;;-144.48;100.00
10688;BME280;5392;42.688;23.298;2023-04-12T02:00:17;57482.31;;;-144.48;100.00
10688;BME280;5392;42.688;23.298;2023-04-12T02:02:44;57438.47;;;-144.48;100.00
10688;BME280;5392;42.688;23.298;2023-04-12T02:05:11;57430.13;;;-144.48;100.00
10688;BME280;5392;42.688;23.298;2023-04-12T02:07:39;57457.25;;;-144.48;100.00
10688;BME280;5392;42.688;23.298;2023-04-12T02:10:06;57453.09;;;-144.48;100.00
10688;BME280;5392;42.688;23.298;2023-04-12T02:12:33;57446.81;;;-144.48;100.00
10688;BME280;5392;42.688;23.298;2023-04-12T02:14:59;57463.53;;;-144.48;100.00
10688;BME280;5392;42.688;23.298;2023-04-12T02:17:26;57465.59;;;-144.48;100.00
10688;BME280;5392;42.688;23.298;2023-04-12T02:19:55;57453.09;;;-144.48;100.00
10688;BME280;5392;42.688;23.298;2023-04-12T02:22:23;57471.88;;;-144.48;100.00
10688;BME280;5392;42.688;23.298;2023-04-12T02:24:49;57473.97;;;-144.48;100.00
10688;BME280;5392;42.688;23.298;2023-04-12T02:27:16;57509.44;;;-144.48;100.00
10688;BME280;5392;42.688;23.298;2023-04-12T02:29:44;57478.13;;;-144.48;100.00
10688;BME280;5392;42.688;23.298;2023-04-12T02:32:11;57451.00;;;-144.48;100.00
10688;BME280;5392;42.688;23.298;2023-04-12T02:34:38;57461.44;;;-144.48;100.00
10688;BME280;5392;42.688;23.298;2023-04-12T02:37:05;57480.22;;;-144.48;100.00
10688;BME280;5392;42.688;23.298;2023-04-12T02:39:32;57400.91;;;-144.48;100.00
10688;BME280;5392;42.688;23.298;2023-04-12T02:41:59;57496.91;;;-144.48;100.00
10688;BME280;5392;42.688;23.298;2023-04-12T02:44:29;57486.47;;;-144.48;100.00
10688;BME280;5392;42.688;23.298;2023-04-12T02:46:56;57448.91;;;-144.48;100.00
10688;BME280;5392;42.688;23.298;2023-04-12T02:49:23;57515.69;;;-144.48;100.00
10688;BME280;5392;42.688;23.298;2023-04-12T02:51:50;57455.16;;;-144.48;100.00
10688;BME280;5392;42.688;23.298;2023-04-12T02:54:16;57461.44;;;-144.48;100.00
10688;BME280;5392;42.688;23.298;2023-04-12T02:56:43;57507.34;;;-144.48;100.00
10688;BME280;5392;42.688;23.298;2023-04-12T02:59:10;57496.91;;;-144.48;100.00
10688;BME280;5392;42.688;23.298;2023-04-12T03:01:36;57444.72;;;-144.48;100.00
10688;BME280;5392;42.688;23.298;2023-04-12T03:04:04;57471.88;;;-144.48;100.00
10688;BME280;5392;42.688;23.298;2023-04-12T03:06:31;57478.13;;;-144.48;100.00
10688;BME280;5392;42.688;23.298;2023-04-12T03:08:58;57473.97;;;-144.48;100.00
10688;BME280;5392;42.688;23.298;2023-04-12T03:11:25;57465.59;;;-144.48;100.00
10688;BME280;5392;42.688;23.298;2023-04-12T03:13:52;57488.56;;;-144.48;100.00
10688;BME280;5392;42.688;23.298;2023-04-12T03:16:24;57451.00;;;-144.48;100.00
10688;BME280;5392;42.688;23.298;2023-04-12T03:18:55;57492.75;;;-144.48;100.00
10688;BME280;5392;42.688;23.298;2023-04-12T03:21:22;57442.66;;;-144.48;100.00
10688;BME280;5392;42.688;23.298;2023-04-12T03:23:48;57471.88;;;-144.48;100.00
10688;BME280;5392;42.688;23.298;2023-04-12T03:26:15;57453.09;;;-144.48;100.00
10688;BME280;5392;42.688;23.298;2023-04-12T03:28:46;57471.88;;;-144.48;100.00
10688;BME280;5392;42.688;23.298;2023-04-12T03:31:13;57459.34;;;-144.48;100.00
10688;BME280;5392;42.688;23.298;2023-04-12T03:33:40;57457.25;;;-144.48;100.00
10688;BME280;5392;42.688;23.298;2023-04-12T03:36:08;57505.25;;;-144.48;100.00
10688;BME280;5392;42.688;23.298;2023-04-12T03:38:35;57476.03;;;-144.48;100.00
10688;BME280;5392;42.688;23.298;2023-04-12T03:41:01;57451.00;;;-144.48;100.00
10688;BME280;5392;42.688;23.298;2023-04-12T03:43:28;57471.88;;;-144.48;100.00
10688;BME280;5392;42.688;23.298;2023-04-12T03:46:02;57492.75;;;-144.48;100.00
10688;BME280;5392;42.688;23.298;2023-04-12T03:48:29;57453.09;;;-144.48;100.00
10688;BME280;5392;42.688;23.298;2023-04-12T03:50:57;57505.25;;;-144.48;100.00
10688;BME280;5392;42.688;23.298;2023-04-12T03:53:25;57461.44;;;-144.48;100.00
10688;BME280;5392;42.688;23.298;2023-04-12T03:55:56;57467.69;;;-144.48;100.00
10688;BME280;5392;42.688;23.298;2023-04-12T03:58:25;57432.22;;;-144.48;100.00
10688;BME280;5392;42.688;23.298;2023-04-12T04:00:51;57471.88;;;-144.48;100.00
10688;BME280;5392;42.688;23.298;2023-04-12T04:03:18;57455.16;;;-144.48;100.00
10688;BME280;5392;42.688;23.298;2023-04-12T04:05:45;57467.69;;;-144.48;100.00
10688;BME280;5392;42.688;23.298;2023-04-12T04:08:12;57463.53;;;-144.48;100.00
10688;BME280;5392;42.688;23.298;2023-04-12T04:10:39;57451.00;;;-144.48;100.00
10688;BME280;5392;42.688;23.298;2023-04-12T04:13:05;57501.09;;;-144.48;100.00
10688;BME280;5392;42.688;23.298;2023-04-12T04:15:32;57492.75;;;-144.48;100.00
10688;BME280;5392;42.688;23.298;2023-04-12T04:17:59;57463.53;;;-144.48;100.00
10688;BME280;5392;42.688;23.298;2023-04-12T04:20:25;57478.13;;;-144.48;100.00
10688;BME280;5392;42.688;23.298;2023-04-12T04:22:53;57432.22;;;-144.48;100.00
10688;BME280;5392;42.688;23.298;2023-04-12T04:25:20;57501.09;;;-144.48;100.00
10688;BME280;5392;42.688;23.298;2023-04-12T04:27:47;57448.91;;;-144.48;100.00
10688;BME280;5392;42.688;23.298;2023-04-12T04:30:15;57453.09;;;-144.48;100.00
10688;BME280;5392;42.688;23.298;2023-04-12T04:32:42;57467.69;;;-144.48;100.00
10688;BME280;5392;42.688;23.298;2023-04-12T04:35:09;57457.25;;;-144.48;100.00
10688;BME280;5392;42.688;23.298;2023-04-12T04:37:35;57457.25;;;-144.48;100.00
10688;BME280;5392;42.688;23.298;2023-04-12T04:40:02;57469.78;;;-144.48;100.00
10688;BME280;5392;42.688;23.298;2023-04-12T04:42:37;57476.03;;;-144.48;100.00
10688;BME280;5392;42.688;23.298;2023-04-12T04:45:05;57451.00;;;-144.48;100.00
10688;BME280;5392;42.688;23.298;2023-04-12T04:47:39;57471.88;;;-144.48;100.00
10688;BME280;5392;42.688;23.298;2023-04-12T04:50:06;57425.94;;;-144.48;100.00
10688;BME280;5392;42.688;23.298;2023-04-12T04:52:33;57440.56;;;-144.48;100.00
10688;BME280;5392;42.688;23.298;2023-04-12T04:55:00;57428.03;;;-144.48;100.00
10688;BME280;5392;42.688;23.298;2023-04-12T04:57:30;57476.03;;;-144.48;100.00
10688;BME280;5392;42.688;23.298;2023-04-12T04:59:56;57476.03;;;-144.48;100.00
10688;BME280;5392;42.688;23.298;2023-04-12T05:02:23;57480.22;;;-144.48;100.00
10688;BME280;5392;42.688;23.298;2023-04-12T05:04:51;57459.34;;;-144.48;100.00
10688;BME280;5392;42.688;23.298;2023-04-12T05:07:21;57455.16;;;-144.48;100.00
10688;BME280;5392;42.688;23.298;2023-04-12T05:09:49;57473.97;;;-144.48;100.00
10688;BME280;5392;42.688;23.298;2023-04-12T05:12:15;57467.69;;;-144.48;100.00
10688;BME280;5392;42.688;23.298;2023-04-12T05:14:42;57490.66;;;-144.48;100.00
10688;BME280;5392;42.688;23.298;2023-04-12T05:17:16;57430.13;;;-144.48;100.00
10688;BME280;5392;42.688;23.298;2023-04-12T05:19:44;57480.22;;;-144.48;100.00
10688;BME280;5392;42.688;23.298;2023-04-12T05:22:10;57419.69;;;-144.48;100.00
10688;BME280;5392;42.688;23.298;2023-04-12T05:24:39;57457.25;;;-144.48;100.00
10688;BME280;5392;42.688;23.298;2023-04-12T05:27:06;57469.78;;;-144.48;100.00
10688;BME280;5392;42.688;23.298;2023-04-12T05:29:32;57459.34;;;-144.48;100.00
10688;BME280;5392;42.688;23.298;2023-04-12T05:32:02;57432.22;;;-144.48;100.00
10688;BME280;5392;42.688;23.298;2023-04-12T05:34:29;57453.09;;;-144.48;100.00
10688;BME280;5392;42.688;23.298;2023-04-12T05:36:56;57448.91;;;-144.48;99.89
10688;BME280;5392;42.688;23.298;2023-04-12T05:39:25;57486.47;;;-144.48;100.00
10688;BME280;5392;42.688;23.298;2023-04-12T05:41:52;57430.13;;;-144.48;99.52
10688;BME280;5392;42.688;23.298;2023-04-12T05:44:19;57467.69;;;-144.48;98.81
10688;BME280;5392;42.688;23.298;2023-04-12T05:46:46;57473.97;;;-144.48;97.73
10688;BME280;5392;42.688;23.298;2023-04-12T05:49:12;57467.69;;;-144.48;96.91
10688;BME280;5392;42.688;23.298;2023-04-12T05:51:39;57490.66;;;-144.48;95.66
10688;BME280;5392;42.688;23.298;2023-04-12T05:54:07;57423.88;;;-144.48;94.68
10688;BME280;5392;42.688;23.298;2023-04-12T05:56:34;57444.72;;;-144.48;93.83
10688;BME280;5392;42.688;23.298;2023-04-12T05:59:01;57463.53;;;-144.48;93.10
10688;BME280;5392;42.688;23.298;2023-04-12T06:01:28;57453.09;;;-144.48;92.22
10688;BME280;5392;42.688;23.298;2023-04-12T06:03:58;57438.47;;;-144.48;92.52
10688;BME280;5392;42.688;23.298;2023-04-12T06:06:28;57484.41;;;-144.48;92.93
10688;BME280;5392;42.688;23.298;2023-04-12T06:08:56;57469.78;;;-144.48;92.54
10688;BME280;5392;42.688;23.298;2023-04-12T06:11:26;57473.97;;;-144.48;93.47
10688;BME280;5392;42.688;23.298;2023-04-12T06:13:53;57488.56;;;-144.48;94.29
10688;BME280;5392;42.688;23.298;2023-04-12T06:16:19;57417.59;;;-144.48;95.08
10688;BME280;5392;42.688;23.298;2023-04-12T06:18:46;57465.59;;;-144.48;95.81
10688;BME280;5392;42.688;23.298;2023-04-12T06:21:13;57423.88;;;-144.48;96.51
10688;BME280;5392;42.688;23.298;2023-04-12T06:23:39;57463.53;;;-144.48;96.28
10688;BME280;5392;42.688;23.298;2023-04-12T06:26:06;57478.13;;;-144.48;96.91
10688;BME280;5392;42.688;23.298;2023-04-12T06:28:33;57432.22;;;-144.48;95.65
10688;BME280;5392;42.688;23.298;2023-04-12T06:30:59;57482.31;;;-144.48;94.42
10688;BME280;5392;42.688;23.298;2023-04-12T06:33:26;57471.88;;;-144.48;93.44
10688;BME280;5392;42.688;23.298;2023-04-12T06:35:53;57419.69;;;-144.48;92.08
10688;BME280;5392;42.688;23.298;2023-04-12T06:38:19;57459.34;;;-144.48;89.08
10688;BME280;5392;42.688;23.298;2023-04-12T06:40:46;57492.75;;;-144.48;88.95
10688;BME280;5392;42.688;23.298;2023-04-12T06:43:16;57467.69;;;-144.48;88.59
10688;BME280;5392;42.688;23.298;2023-04-12T06:45:48;57467.69;;;-144.48;87.27
10688;BME280;5392;42.688;23.298;2023-04-12T06:48:17;57501.09;;;-144.48;86.22
10688;BME280;5392;42.688;23.298;2023-04-12T06:50:44;57444.72;;;-144.48;87.42
10688;BME280;5392;42.688;23.298;2023-04-12T06:53:11;57438.47;;;-144.48;87.21
10688;BME280;5392;42.688;23.298;2023-04-12T06:55:41;57448.91;;;-144.48;86.86
10688;BME280;5392;42.688;23.298;2023-04-12T06:58:07;57484.41;;;-144.48;86.14
10688;BME280;5392;42.688;23.298;2023-04-12T07:00:34;57448.91;;;-144.48;85.31
10688;BME280;5392;42.688;23.298;2023-04-12T07:03:01;57442.66;;;-144.48;83.63
10688;BME280;5392;42.688;23.298;2023-04-12T07:05:28;57463.53;;;-144.48;82.55
10688;BME280;5392;42.688;23.298;2023-04-12T07:07:55;57469.78;;;-144.48;80.92
10688;BME280;5392;42.688;23.298;2023-04-12T07:10:23;57448.91;;;-144.48;73.82
10688;BME280;5392;42.688;23.298;2023-04-12T07:12:49;57438.47;;;-144.48;66.57
10688;BME280;5392;42.688;23.298;2023-04-12T07:15:17;57436.38;;;-144.48;66.54
10688;BME280;5392;42.688;23.298;2023-04-12T07:17:44;57430.13;;;-144.48;65.49
10688;BME280;5392;42.688;23.298;2023-04-12T07:20:11;57425.94;;;-144.48;64.79
10688;BME280;5392;42.688;23.298;2023-04-12T07:22:37;57438.47;;;-144.48;67.09
10688;BME280;5392;42.688;23.298;2023-04-12T07:25:04;57451.00;;;-144.48;71.17
10688;BME280;5392;42.688;23.298;2023-04-12T07:27:35;57457.25;;;-144.48;71.85
10688;BME280;5392;42.688;23.298;2023-04-12T07:30:03;57417.59;;;-144.48;70.90
10688;BME280;5392;42.688;23.298;2023-04-12T07:32:29;57409.25;;;-144.48;71.67
10688;BME280;5392;42.688;23.298;2023-04-12T07:34:56;57457.25;;;-144.48;74.18
10688;BME280;5392;42.688;23.298;2023-04-12T07:37:23;57459.34;;;-144.48;72.52
10688;BME280;5392;42.688;23.298;2023-04-12T07:39:50;57446.81;;;-144.48;72.58
10688;BME280;5392;42.688;23.298;2023-04-12T07:42:16;57425.94;;;-144.48;73.53
10688;BME280;5392;42.688;23.298;2023-04-12T07:44:43;57465.59;;;-144.48;72.47
10688;BME280;5392;42.688;23.298;2023-04-12T07:47:10;57451.00;;;-144.48;69.23
10688;BME280;5392;42.688;23.298;2023-04-12T07:49:36;57453.09;;;-144.48;63.99
10688;BME280;5392;42.688;23.298;2023-04-12T07:52:03;57453.09;;;-144.48;62.56
10688;BME280;5392;42.688;23.298;2023-04-12T07:54:30;57486.47;;;-144.48;62.26
10688;BME280;5392;42.688;23.298;2023-04-12T07:57:01;57436.38;;;-144.48;62.93
10688;BME280;5392;42.688;23.298;2023-04-12T07:59:29;57457.25;;;-144.48;63.53
10688;BME280;5392;42.688;23.298;2023-04-12T08:01:57;57463.53;;;-144.48;63.10
10688;BME280;5392;42.688;23.298;2023-04-12T08:04:23;57423.88;;;-144.48;63.26
10688;BME280;5392;42.688;23.298;2023-04-12T08:06:50;57413.44;;;-144.48;64.09
10688;BME280;5392;42.688;23.298;2023-04-12T08:09:17;57448.91;;;-144.48;64.50
10688;BME280;5392;42.688;23.298;2023-04-12T08:11:44;57453.09;;;-144.48;64.65
10688;BME280;5392;42.688;23.298;2023-04-12T08:14:11;57446.81;;;-144.48;64.29
10688;BME280;5392;42.688;23.298;2023-04-12T08:16:37;57484.41;;;-144.48;62.56
10688;BME280;5392;42.688;23.298;2023-04-12T08:19:04;57444.72;;;-144.48;63.35
10688;BME280;5392;42.688;23.298;2023-04-12T08:21:31;57453.09;;;-144.48;61.69
10688;BME280;5392;42.688;23.298;2023-04-12T08:23:58;57407.16;;;-144.48;59.95
10688;BME280;5392;42.688;23.298;2023-04-12T08:26:25;57463.53;;;-144.48;57.72
10688;BME280;5392;42.688;23.298;2023-04-12T08:28:52;57423.88;;;-144.48;57.04
10688;BME280;5392;42.688;23.298;2023-04-12T08:31:18;57459.34;;;-144.48;57.74
10688;BME280;5392;42.688;23.298;2023-04-12T08:33:45;57421.78;;;-144.48;57.89
10688;BME280;5392;42.688;23.298;2023-04-12T08:36:12;57453.09;;;-144.48;57.48
10688;BME280;5392;42.688;23.298;2023-04-12T08:38:39;57419.69;;;-144.48;57.33
10688;BME280;5392;42.688;23.298;2023-04-12T08:41:12;57423.88;;;-144.48;57.39
10688;BME280;5392;42.688;23.298;2023-04-12T08:43:43;57421.78;;;-144.48;57.85
10688;BME280;5392;42.688;23.298;2023-04-12T08:46:15;57430.13;;;-144.48;58.07
10688;BME280;5392;42.688;23.298;2023-04-12T08:48:47;57403.00;;;-144.48;56.75
10688;BME280;5392;42.688;23.298;2023-04-12T08:51:18;57492.75;;;-144.48;57.80
10688;BME280;5392;42.688;23.298;2023-04-12T08:53:46;57417.59;;;-144.48;57.96
10688;BME280;5392;42.688;23.298;2023-04-12T08:56:14;57405.06;;;-144.48;58.13
10688;BME280;5392;42.688;23.298;2023-04-12T08:58:45;57411.34;;;-144.48;58.88
10688;BME280;5392;42.688;23.298;2023-04-12T09:01:15;57455.16;;;-144.48;58.10
10688;BME280;5392;42.688;23.298;2023-04-12T09:03:43;57396.72;;;-144.48;57.72
10688;BME280;5392;42.688;23.298;2023-04-12T09:06:11;57413.44;;;-144.48;57.98
10688;BME280;5392;42.688;23.298;2023-04-12T09:08:52;57415.50;;;-144.48;58.70
10688;BME280;5392;42.688;23.298;2023-04-12T09:11:24;57451.00;;;-144.48;59.61
10688;BME280;5392;42.688;23.298;2023-04-12T09:13:53;57421.78;;;-144.48;60.20
10688;BME280;5392;42.688;23.298;2023-04-12T09:16:39;57440.56;;;-144.48;59.90
10688;BME280;5392;42.688;23.298;2023-04-12T09:19:07;57394.63;;;-144.48;58.93
10688;BME280;5392;42.688;23.298;2023-04-12T09:21:35;57432.22;;;-144.48;59.49
10688;BME280;5392;42.688;23.298;2023-04-12T09:24:09;57428.03;;;-144.48;59.90
10688;BME280;5392;42.688;23.298;2023-04-12T09:26:40;57400.91;;;-144.48;59.09
10688;BME280;5392;42.688;23.298;2023-04-12T09:29:21;57465.59;;;-144.48;59.57
10688;BME280;5392;42.688;23.298;2023-04-12T09:32:03;57432.22;;;-144.48;59.28
10688;BME280;5392;42.688;23.298;2023-04-12T09:34:31;57419.69;;;-144.48;59.44
10688;BME280;5392;42.688;23.298;2023-04-12T09:36:58;57411.34;;;-144.48;58.59
10688;BME280;5392;42.688;23.298;2023-04-12T09:39:34;57463.53;;;-144.48;58.56
10688;BME280;5392;42.688;23.298;2023-04-12T09:42:10;57442.66;;;-144.48;59.29
10688;BME280;5392;42.688;23.298;2023-04-12T09:44:57;57453.09;;;-144.48;59.11
10688;BME280;5392;42.688;23.298;2023-04-12T09:47:37;57413.44;;;-144.48;58.79
10688;BME280;5392;42.688;23.298;2023-04-12T09:50:06;57419.69;;;-144.48;58.45
10688;BME280;5392;42.688;23.298;2023-04-12T09:52:37;57432.22;;;-144.48;58.28
10688;BME280;5392;42.688;23.298;2023-04-12T09:55:09;57463.53;;;-144.48;57.72
10688;BME280;5392;42.688;23.298;2023-04-12T09:57:39;57442.66;;;-144.48;57.38
10688;BME280;5392;42.688;23.298;2023-04-12T10:00:07;57444.72;;;-144.48;58.03
10688;BME280;5392;42.688;23.298;2023-04-12T10:02:43;57440.56;;;-144.48;56.33
10688;BME280;5392;42.688;23.298;2023-04-12T10:05:15;57465.59;;;-144.48;56.02
10688;BME280;5392;42.688;23.298;2023-04-12T10:07:43;57409.25;;;-144.48;55.46
10688;BME280;5392;42.688;23.298;2023-04-12T10:10:11;57438.47;;;-144.48;53.97
10688;BME280;5392;42.688;23.298;2023-04-12T10:12:39;57428.03;;;-144.48;53.79
10688;BME280;5392;42.688;23.298;2023-04-12T10:15:08;57428.03;;;-144.48;54.22
10688;BME280;5392;42.688;23.298;2023-04-12T10:17:53;57457.25;;;-144.48;54.54
10688;BME280;5392;42.688;23.298;2023-04-12T10:20:21;57428.03;;;-144.48;54.48
10688;BME280;5392;42.688;23.298;2023-04-12T10:22:52;57461.44;;;-144.48;54.69
10688;BME280;5392;42.688;23.298;2023-04-12T10:25:22;57423.88;;;-144.48;55.09
10688;BME280;5392;42.688;23.298;2023-04-12T10:27:50;57451.00;;;-144.48;55.46
10688;BME280;5392;42.688;23.298;2023-04-12T10:30:21;57440.56;;;-144.48;56.02
10688;BME280;5392;42.688;23.298;2023-04-12T10:36:00;57423.88;;;-144.48;55.93
10688;BME280;5392;42.688;23.298;2023-04-12T10:38:46;57396.72;;;-144.48;55.92
10688;BME280;5392;42.688;23.298;2023-04-12T10:41:16;57386.28;;;-144.48;55.47
10688;BME280;5392;42.688;23.298;2023-04-12T10:43:48;57430.13;;;-144.48;55.55
10688;BME280;5392;42.688;23.298;2023-04-12T10:49:12;57432.22;;;-144.48;55.29
10688;BME280;5392;42.688;23.298;2023-04-12T10:51:40;57444.72;;;-144.48;54.59
10688;BME280;5392;42.688;23.298;2023-04-12T10:54:31;57415.50;;;-144.48;54.61
10688;BME280;5392;42.688;23.298;2023-04-12T10:57:02;57430.13;;;-144.48;55.24
10688;BME280;5392;42.688;23.298;2023-04-12T10:59:52;57425.94;;;-144.48;55.87
10688;BME280;5392;42.688;23.298;2023-04-12T11:02:22;57394.63;;;-144.48;54.38
10688;BME280;5392;42.688;23.298;2023-04-12T11:05:09;57457.25;;;-144.48;54.25
10688;BME280;5392;42.688;23.298;2023-04-12T11:07:41;57428.03;;;-144.48;53.79
10688;BME280;5392;42.688;23.298;2023-04-12T11:10:15;57442.66;;;-144.48;54.02
10688;BME280;5392;42.688;23.298;2023-04-12T11:12:48;57405.06;;;-144.48;53.90
10688;BME280;5392;42.688;23.298;2023-04-12T11:15:16;57440.56;;;-144.48;53.85
10688;BME280;5392;42.688;23.298;2023-04-12T11:17:52;57425.94;;;-144.48;54.28
10688;BME280;5392;42.688;23.298;2023-04-12T11:20:20;57430.13;;;-144.48;54.27
10688;BME280;5392;42.688;23.298;2023-04-12T11:22:47;57455.16;;;-144.48;54.40
10688;BME280;5392;42.688;23.298;2023-04-12T11:25:16;57471.88;;;-144.48;54.44
10688;BME280;5392;42.688;23.298;2023-04-12T11:27:50;57400.91;;;-144.48;54.02
10688;BME280;5392;42.688;23.298;2023-04-12T11:30:17;57419.69;;;-144.48;54.01
10688;BME280;5392;42.688;23.298;2023-04-12T11:32:45;57440.56;;;-144.48;54.53
10688;BME280;5392;42.688;23.298;2023-04-12T11:35:16;57428.03;;;-144.48;54.53
10688;BME280;5392;42.688;23.298;2023-04-12T11:37:45;57432.22;;;-144.48;53.88
10688;BME280;5392;42.688;23.298;2023-04-12T11:40:13;57438.47;;;-144.48;53.92
10688;BME280;5392;42.688;23.298;2023-04-12T11:42:40;57417.59;;;-144.48;54.03
10688;BME280;5392;42.688;23.298;2023-04-12T11:45:08;57423.88;;;-144.48;54.23
10688;BME280;5392;42.688;23.298;2023-04-12T11:47:44;57473.97;;;-144.48;54.18
10688;BME280;5392;42.688;23.298;2023-04-12T11:50:11;57417.59;;;-144.48;54.14
10688;BME280;5392;42.688;23.298;2023-04-12T11:52:38;57407.16;;;-144.48;54.36
10688;BME280;5392;42.688;23.298;2023-04-12T11:55:06;57409.25;;;-144.48;54.58
10688;BME280;5392;42.688;23.298;2023-04-12T11:57:37;57390.47;;;-144.48;54.50
10688;BME280;5392;42.688;23.298;2023-04-12T12:00:04;57444.72;;;-144.48;54.63
10688;BME280;5392;42.688;23.298;2023-04-12T12:02:32;57407.16;;;-144.48;55.09
10688;BME280;5392;42.688;23.298;2023-04-12T12:05:11;57413.44;;;-144.48;55.13
10688;BME280;5392;42.688;23.298;2023-04-12T12:07:39;57421.78;;;-144.48;55.21
10688;BME280;5392;42.688;23.298;2023-04-12T12:10:06;57419.69;;;-144.48;55.24
10688;BME280;5392;42.688;23.298;2023-04-12T12:12:33;57407.16;;;-144.48;55.04
10688;BME280;5392;42.688;23.298;2023-04-12T12:15:01;57423.88;;;-144.48;54.69
10688;BME280;5392;42.688;23.298;2023-04-12T12:17:27;57448.91;;;-144.48;54.69
10688;BME280;5392;42.688;23.298;2023-04-12T12:19:56;57405.06;;;-144.48;55.02
10688;BME280;5392;42.688;23.298;2023-04-12T12:22:24;57423.88;;;-144.48;54.90
10688;BME280;5392;42.688;23.298;2023-04-12T12:24:55;57415.50;;;-144.48;55.22
10688;BME280;5392;42.688;23.298;2023-04-12T12:27:36;57461.44;;;-144.48;55.27
10688;BME280;5392;42.688;23.298;2023-04-12T12:30:06;57451.00;;;-144.48;55.04
10688;BME280;5392;42.688;23.298;2023-04-12T12:32:34;57455.16;;;-144.48;54.64
10688;BME280;5392;42.688;23.298;2023-04-12T12:35:11;57430.13;;;-144.48;55.32
10688;BME280;5392;42.688;23.298;2023-04-12T12:37:47;57392.56;;;-144.48;55.58
10688;BME280;5392;42.688;23.298;2023-04-12T12:40:16;57419.69;;;-144.48;55.33
10688;BME280;5392;42.688;23.298;2023-04-12T12:42:53;57440.56;;;-144.48;55.30
10688;BME280;5392;42.688;23.298;2023-04-12T12:45:22;57405.06;;;-144.48;54.52
10688;BME280;5392;42.688;23.298;2023-04-12T12:50:22;57411.34;;;-144.48;54.86
10688;BME280;5392;42.688;23.298;2023-04-12T12:52:50;57482.31;;;-144.48;54.59
10688;BME280;5392;42.688;23.298;2023-04-12T12:55:17;57417.59;;;-144.48;54.76
10688;BME280;5392;42.688;23.298;2023-04-12T12:57:45;57396.72;;;-144.48;54.40
10688;BME280;5392;42.688;23.298;2023-04-12T13:00:31;57419.69;;;-144.48;54.63
10688;BME280;5392;42.688;23.298;2023-04-12T13:02:58;57396.72;;;-144.48;54.54
10688;BME280;5392;42.688;23.298;2023-04-12T13:05:25;57432.22;;;-144.48;54.86
10688;BME280;5392;42.688;23.298;2023-04-12T13:07:52;57463.53;;;-144.48;55.37